sensor_id;sensor_type;location;lat;lon;timestamp;P1;durP1;ratioP1;P2;durP2;ratioP2
38479;SDS011;62333;51.980;5.934;2024-02-04T00:02:19;7.85;;;5.50;;
38479;SDS011;62333;51.980;5.934;2024-02-04T00:04:47;13.38;;;6.43;;
38479;SDS011;62333;51.980;5.934;2024-02-04T00:07:13;8.32;;;6.15;;
38479;SDS011;62333;51.980;5.934;2024-02-04T00:09:38;7.25;;;4.68;;
38479;SDS011;62333;51.980;5.934;2024-02-04T00:12:04;7.00;;;5.18;;
38479;SDS011;62333;51.980;5.934;2024-02-04T00:14:31;8.52;;;5.60;;
38479;SDS011;62333;51.980;5.934;2024-02-04T00:16:57;6.68;;;4.97;;
38479;SDS011;62333;51.980;5.934;2024-02-04T00:19:23;6.20;;;5.05;;
38479;SDS011;62333;51.980;5.934;2024-02-04T00:21:48;9.18;;;6.15;;
38479;SDS011;62333;51.980;5.934;2024-02-04T00:24:14;7.65;;;5.38;;
38479;SDS011;62333;51.980;5.934;2024-02-04T00:26:39;9.52;;;6.53;;
38479;SDS011;62333;51.980;5.934;2024-02-04T00:29:05;7.28;;;5.07;;
38479;SDS011;62333;51.980;5.934;2024-02-04T00:31:31;7.68;;;5.07;;
38479;SDS011;62333;51.980;5.934;2024-02-04T00:33:56;6.85;;;4.93;;
38479;SDS011;62333;51.980;5.934;2024-02-04T00:36:22;9.38;;;6.43;;
38479;SDS011;62333;51.980;5.934;2024-02-04T00:38:47;6.20;;;4.80;;
38479;SDS011;62333;51.980;5.934;2024-02-04T00:41:13;9.30;;;6.38;;
38479;SDS011;62333;51.980;5.934;2024-02-04T00:43:39;9.65;;;6.50;;
38479;SDS011;62333;51.980;5.934;2024-02-04T00:46:04;10.18;;;6.50;;
38479;SDS011;62333;51.980;5.934;2024-02-04T00:48:30;10.73;;;7.00;;
38479;SDS011;62333;51.980;5.934;2024-02-04T00:50:55;9.35;;;6.45;;
38479;SDS011;62333;51.980;5.934;2024-02-04T00:53:21;9.60;;;5.88;;
38479;SDS011;62333;51.980;5.934;2024-02-04T00:55:47;11.30;;;6.95;;
38479;SDS011;62333;51.980;5.934;2024-02-04T00:58:12;10.98;;;6.35;;
38479;SDS011;62333;51.980;5.934;2024-02-04T01:00:38;13.15;;;7.35;;
38479;SDS011;62333;51.980;5.934;2024-02-04T01:03:04;17.90;;;9.35;;
38479;SDS011;62333;51.980;5.934;2024-02-04T01:05:29;20.63;;;10.38;;
38479;SDS011;62333;51.980;5.934;2024-02-04T01:07:55;18.95;;;9.23;;
38479;SDS011;62333;51.980;5.934;2024-02-04T01:10:20;22.05;;;11.88;;
38479;SDS011;62333;51.980;5.934;2024-02-04T01:12:46;16.92;;;9.93;;
38479;SDS011;62333;51.980;5.934;2024-02-04T01:15:12;25.42;;;11.07;;
38479;SDS011;62333;51.980;5.934;2024-02-04T01:17:37;17.77;;;8.73;;
38479;SDS011;62333;51.980;5.934;2024-02-04T01:20:03;17.48;;;10.60;;
38479;SDS011;62333;51.980;5.934;2024-02-04T01:22:30;22.35;;;8.75;;
38479;SDS011;62333;51.980;5.934;2024-02-04T01:24:56;11.00;;;7.40;;
38479;SDS011;62333;51.980;5.934;2024-02-04T01:27:21;16.00;;;7.38;;
38479;SDS011;62333;51.980;5.934;2024-02-04T01:29:47;13.27;;;7.00;;
38479;SDS011;62333;51.980;5.934;2024-02-04T01:32:13;10.52;;;6.78;;
38479;SDS011;62333;51.980;5.934;2024-02-04T01:34:39;10.95;;;7.15;;
38479;SDS011;62333;51.980;5.934;2024-02-04T01:37:04;11.57;;;7.85;;
38479;SDS011;62333;51.980;5.934;2024-02-04T01:39:30;7.80;;;4.78;;
38479;SDS011;62333;51.980;5.934;2024-02-04T01:41:56;14.95;;;6.50;;
38479;SDS011;62333;51.980;5.934;2024-02-04T01:44:21;9.80;;;5.60;;
38479;SDS011;62333;51.980;5.934;2024-02-04T01:46:48;14.32;;;7.22;;
38479;SDS011;62333;51.980;5.934;2024-02-04T01:49:14;12.90;;;5.80;;
38479;SDS011;62333;51.980;5.934;2024-02-04T01:51:40;11.93;;;5.43;;
38479;SDS011;62333;51.980;5.934;2024-02-04T01:54:06;15.05;;;6.65;;
38479;SDS011;62333;51.980;5.934;2024-02-04T01:56:33;13.38;;;7.53;;
38479;SDS011;62333;51.980;5.934;2024-02-04T01:58:59;14.15;;;9.32;;
38479;SDS011;62333;51.980;5.934;2024-02-04T02:01:26;15.00;;;6.60;;
38479;SDS011;62333;51.980;5.934;2024-02-04T02:03:52;15.50;;;7.10;;
38479;SDS011;62333;51.980;5.934;2024-02-04T02:06:18;11.07;;;5.90;;
38479;SDS011;62333;51.980;5.934;2024-02-04T02:08:44;19.02;;;8.50;;
38479;SDS011;62333;51.980;5.934;2024-02-04T02:11:13;13.02;;;5.95;;
38479;SDS011;62333;51.980;5.934;2024-02-04T02:13:48;16.10;;;6.85;;
38479;SDS011;62333;51.980;5.934;2024-02-04T02:16:21;15.45;;;7.95;;
38479;SDS011;62333;51.980;5.934;2024-02-04T02:18:48;9.55;;;6.07;;
38479;SDS011;62333;51.980;5.934;2024-02-04T02:24:16;23.77;;;7.60;;
38479;SDS011;62333;51.980;5.934;2024-02-04T02:26:52;16.42;;;5.78;;
38479;SDS011;62333;51.980;5.934;2024-02-04T02:29:19;14.50;;;7.18;;
38479;SDS011;62333;51.980;5.934;2024-02-04T02:31:44;8.52;;;5.90;;
38479;SDS011;62333;51.980;5.934;2024-02-04T02:34:10;13.57;;;7.18;;
38479;SDS011;62333;51.980;5.934;2024-02-04T02:36:39;15.27;;;6.47;;
38479;SDS011;62333;51.980;5.934;2024-02-04T02:39:30;15.70;;;6.50;;
38479;SDS011;62333;51.980;5.934;2024-02-04T02:42:00;12.73;;;6.03;;
38479;SDS011;62333;51.980;5.934;2024-02-04T02:44:28;12.95;;;5.55;;
38479;SDS011;62333;51.980;5.934;2024-02-04T02:46:55;13.15;;;6.40;;
38479;SDS011;62333;51.980;5.934;2024-02-04T02:49:23;13.07;;;5.65;;
38479;SDS011;62333;51.980;5.934;2024-02-04T02:51:49;10.70;;;5.47;;
38479;SDS011;62333;51.980;5.934;2024-02-04T02:54:15;12.00;;;5.15;;
38479;SDS011;62333;51.980;5.934;2024-02-04T02:56:40;11.05;;;5.88;;
38479;SDS011;62333;51.980;5.934;2024-02-04T02:59:06;13.45;;;6.30;;
38479;SDS011;62333;51.980;5.934;2024-02-04T03:01:33;10.98;;;6.85;;
38479;SDS011;62333;51.980;5.934;2024-02-04T03:03:58;10.90;;;5.10;;
38479;SDS011;62333;51.980;5.934;2024-02-04T03:06:24;11.25;;;5.82;;
38479;SDS011;62333;51.980;5.934;2024-02-04T03:08:50;10.80;;;5.28;;
38479;SDS011;62333;51.980;5.934;2024-02-04T03:11:15;10.90;;;5.28;;
38479;SDS011;62333;51.980;5.934;2024-02-04T03:13:41;14.60;;;5.57;;
38479;SDS011;62333;51.980;5.934;2024-02-04T03:16:10;8.00;;;3.97;;
38479;SDS011;62333;51.980;5.934;2024-02-04T03:18:38;11.68;;;6.32;;
38479;SDS011;62333;51.980;5.934;2024-02-04T03:21:10;10.95;;;5.05;;
38479;SDS011;62333;51.980;5.934;2024-02-04T03:23:37;11.70;;;6.03;;
38479;SDS011;62333;51.980;5.934;2024-02-04T03:26:03;11.95;;;6.25;;
38479;SDS011;62333;51.980;5.934;2024-02-04T03:28:29;14.85;;;6.45;;
38479;SDS011;62333;51.980;5.934;2024-02-04T03:30:54;18.77;;;8.02;;
38479;SDS011;62333;51.980;5.934;2024-02-04T03:33:20;10.80;;;5.97;;
38479;SDS011;62333;51.980;5.934;2024-02-04T03:35:45;13.75;;;5.78;;
38479;SDS011;62333;51.980;5.934;2024-02-04T03:38:11;11.93;;;6.85;;
38479;SDS011;62333;51.980;5.934;2024-02-04T03:40:37;11.95;;;5.60;;
38479;SDS011;62333;51.980;5.934;2024-02-04T03:43:02;12.88;;;7.93;;
38479;SDS011;62333;51.980;5.934;2024-02-04T03:45:28;14.63;;;7.13;;
38479;SDS011;62333;51.980;5.934;2024-02-04T03:47:54;12.75;;;7.65;;
38479;SDS011;62333;51.980;5.934;2024-02-04T03:50:19;16.48;;;8.98;;
38479;SDS011;62333;51.980;5.934;2024-02-04T03:52:45;15.57;;;9.25;;
38479;SDS011;62333;51.980;5.934;2024-02-04T03:55:11;20.63;;;9.32;;
38479;SDS011;62333;51.980;5.934;2024-02-04T03:57:36;14.05;;;9.50;;
38479;SDS011;62333;51.980;5.934;2024-02-04T04:00:02;20.98;;;9.43;;
38479;SDS011;62333;51.980;5.934;2024-02-04T04:02:29;14.48;;;7.82;;
38479;SDS011;62333;51.980;5.934;2024-02-04T04:04:54;12.57;;;6.15;;
38479;SDS011;62333;51.980;5.934;2024-02-04T04:07:20;14.38;;;5.40;;
38479;SDS011;62333;51.980;5.934;2024-02-04T04:09:46;13.10;;;6.78;;
38479;SDS011;62333;51.980;5.934;2024-02-04T04:12:11;14.98;;;5.38;;
38479;SDS011;62333;51.980;5.934;2024-02-04T04:14:37;11.13;;;6.35;;
38479;SDS011;62333;51.980;5.934;2024-02-04T04:17:03;10.18;;;4.70;;
38479;SDS011;62333;51.980;5.934;2024-02-04T04:19:28;12.30;;;4.65;;
38479;SDS011;62333;51.980;5.934;2024-02-04T04:21:54;11.35;;;3.90;;
38479;SDS011;62333;51.980;5.934;2024-02-04T04:24:21;7.32;;;3.08;;
38479;SDS011;62333;51.980;5.934;2024-02-04T04:26:47;10.15;;;4.57;;
38479;SDS011;62333;51.980;5.934;2024-02-04T04:29:13;9.05;;;4.95;;
38479;SDS011;62333;51.980;5.934;2024-02-04T04:31:38;9.65;;;3.00;;
38479;SDS011;62333;51.980;5.934;2024-02-04T04:34:04;7.40;;;3.40;;
38479;SDS011;62333;51.980;5.934;2024-02-04T04:36:30;11.80;;;4.07;;
38479;SDS011;62333;51.980;5.934;2024-02-04T04:38:56;10.55;;;4.70;;
38479;SDS011;62333;51.980;5.934;2024-02-04T04:41:21;10.52;;;4.70;;
38479;SDS011;62333;51.980;5.934;2024-02-04T04:43:47;8.23;;;4.82;;
38479;SDS011;62333;51.980;5.934;2024-02-04T04:46:13;8.73;;;4.40;;
38479;SDS011;62333;51.980;5.934;2024-02-04T04:48:38;18.40;;;8.15;;
38479;SDS011;62333;51.980;5.934;2024-02-04T04:51:04;11.77;;;5.72;;
38479;SDS011;62333;51.980;5.934;2024-02-04T04:53:33;11.63;;;6.13;;
38479;SDS011;62333;51.980;5.934;2024-02-04T04:55:58;11.00;;;6.03;;
38479;SDS011;62333;51.980;5.934;2024-02-04T04:58:24;13.60;;;5.47;;
38479;SDS011;62333;51.980;5.934;2024-02-04T05:00:50;12.93;;;5.72;;
38479;SDS011;62333;51.980;5.934;2024-02-04T05:03:15;11.13;;;5.18;;
38479;SDS011;62333;51.980;5.934;2024-02-04T05:05:41;9.18;;;5.20;;
38479;SDS011;62333;51.980;5.934;2024-02-04T05:08:07;13.90;;;7.57;;
38479;SDS011;62333;51.980;5.934;2024-02-04T05:10:32;12.52;;;6.93;;
38479;SDS011;62333;51.980;5.934;2024-02-04T05:12:58;15.40;;;6.72;;
38479;SDS011;62333;51.980;5.934;2024-02-04T05:15:23;14.98;;;6.55;;
38479;SDS011;62333;51.980;5.934;2024-02-04T05:17:50;11.35;;;4.85;;
38479;SDS011;62333;51.980;5.934;2024-02-04T05:20:16;10.85;;;5.55;;
38479;SDS011;62333;51.980;5.934;2024-02-04T05:22:41;11.13;;;7.28;;
38479;SDS011;62333;51.980;5.934;2024-02-04T05:25:07;11.68;;;6.07;;
38479;SDS011;62333;51.980;5.934;2024-02-04T05:27:34;8.13;;;5.75;;
38479;SDS011;62333;51.980;5.934;2024-02-04T05:30:01;20.90;;;4.85;;
38479;SDS011;62333;51.980;5.934;2024-02-04T05:32:28;13.93;;;5.55;;
38479;SDS011;62333;51.980;5.934;2024-02-04T05:34:53;8.60;;;3.85;;
38479;SDS011;62333;51.980;5.934;2024-02-04T05:37:19;11.75;;;5.30;;
38479;SDS011;62333;51.980;5.934;2024-02-04T05:39:45;9.63;;;3.75;;
38479;SDS011;62333;51.980;5.934;2024-02-04T05:42:10;6.22;;;3.13;;
38479;SDS011;62333;51.980;5.934;2024-02-04T05:44:36;8.55;;;4.22;;
38479;SDS011;62333;51.980;5.934;2024-02-04T05:47:01;7.18;;;3.65;;
38479;SDS011;62333;51.980;5.934;2024-02-04T05:49:27;7.95;;;3.67;;
38479;SDS011;62333;51.980;5.934;2024-02-04T05:51:53;9.13;;;3.88;;
38479;SDS011;62333;51.980;5.934;2024-02-04T05:54:18;8.18;;;3.03;;
38479;SDS011;62333;51.980;5.934;2024-02-04T05:56:44;8.82;;;4.32;;
38479;SDS011;62333;51.980;5.934;2024-02-04T05:59:10;7.15;;;3.05;;
38479;SDS011;62333;51.980;5.934;2024-02-04T06:01:35;6.50;;;3.45;;
38479;SDS011;62333;51.980;5.934;2024-02-04T06:04:01;9.80;;;4.35;;
38479;SDS011;62333;51.980;5.934;2024-02-04T06:06:27;7.25;;;4.40;;
38479;SDS011;62333;51.980;5.934;2024-02-04T06:08:52;13.00;;;4.63;;
38479;SDS011;62333;51.980;5.934;2024-02-04T06:11:18;8.98;;;5.05;;
38479;SDS011;62333;51.980;5.934;2024-02-04T06:13:44;10.25;;;4.03;;
38479;SDS011;62333;51.980;5.934;2024-02-04T06:16:10;7.40;;;3.60;;
38479;SDS011;62333;51.980;5.934;2024-02-04T06:18:39;10.75;;;4.38;;
38479;SDS011;62333;51.980;5.934;2024-02-04T06:21:05;7.13;;;3.75;;
38479;SDS011;62333;51.980;5.934;2024-02-04T06:23:31;7.38;;;3.10;;
38479;SDS011;62333;51.980;5.934;2024-02-04T06:25:57;11.95;;;4.63;;
38479;SDS011;62333;51.980;5.934;2024-02-04T06:28:23;11.63;;;5.18;;
38479;SDS011;62333;51.980;5.934;2024-02-04T06:30:49;8.45;;;4.03;;
38479;SDS011;62333;51.980;5.934;2024-02-04T06:33:15;10.68;;;4.82;;
38479;SDS011;62333;51.980;5.934;2024-02-04T06:35:40;8.80;;;5.57;;
38479;SDS011;62333;51.980;5.934;2024-02-04T06:38:06;8.23;;;3.83;;
38479;SDS011;62333;51.980;5.934;2024-02-04T06:40:32;7.65;;;3.95;;
38479;SDS011;62333;51.980;5.934;2024-02-04T06:42:57;9.52;;;4.55;;
38479;SDS011;62333;51.980;5.934;2024-02-04T06:45:23;8.82;;;3.75;;
38479;SDS011;62333;51.980;5.934;2024-02-04T06:47:49;8.13;;;4.68;;
38479;SDS011;62333;51.980;5.934;2024-02-04T06:50:14;7.05;;;3.65;;
38479;SDS011;62333;51.980;5.934;2024-02-04T06:52:41;8.80;;;3.95;;
38479;SDS011;62333;51.980;5.934;2024-02-04T06:55:08;10.25;;;4.30;;
38479;SDS011;62333;51.980;5.934;2024-02-04T06:57:34;12.32;;;6.18;;
38479;SDS011;62333;51.980;5.934;2024-02-04T06:59:59;13.15;;;7.10;;
38479;SDS011;62333;51.980;5.934;2024-02-04T07:02:25;13.30;;;7.93;;
38479;SDS011;62333;51.980;5.934;2024-02-04T07:04:51;11.43;;;7.15;;
38479;SDS011;62333;51.980;5.934;2024-02-04T07:07:16;11.93;;;7.40;;
38479;SDS011;62333;51.980;5.934;2024-02-04T07:09:42;11.95;;;8.98;;
38479;SDS011;62333;51.980;5.934;2024-02-04T07:12:07;18.85;;;13.00;;
38479;SDS011;62333;51.980;5.934;2024-02-04T07:14:33;20.73;;;12.63;;
38479;SDS011;62333;51.980;5.934;2024-02-04T07:16:59;16.40;;;11.90;;
38479;SDS011;62333;51.980;5.934;2024-02-04T07:19:24;14.68;;;10.82;;
38479;SDS011;62333;51.980;5.934;2024-02-04T07:21:50;16.02;;;11.80;;
38479;SDS011;62333;51.980;5.934;2024-02-04T07:24:15;15.63;;;11.45;;
38479;SDS011;62333;51.980;5.934;2024-02-04T07:26:41;17.67;;;11.50;;
38479;SDS011;62333;51.980;5.934;2024-02-04T07:29:07;18.55;;;11.00;;
38479;SDS011;62333;51.980;5.934;2024-02-04T07:31:32;17.45;;;11.73;;
38479;SDS011;62333;51.980;5.934;2024-02-04T07:34:02;13.45;;;11.23;;
38479;SDS011;62333;51.980;5.934;2024-02-04T07:36:28;16.38;;;8.95;;
38479;SDS011;62333;51.980;5.934;2024-02-04T07:38:54;17.85;;;11.75;;
38479;SDS011;62333;51.980;5.934;2024-02-04T07:41:19;13.20;;;9.27;;
38479;SDS011;62333;51.980;5.934;2024-02-04T07:43:45;14.80;;;9.23;;
38479;SDS011;62333;51.980;5.934;2024-02-04T07:46:11;18.65;;;10.07;;
38479;SDS011;62333;51.980;5.934;2024-02-04T07:48:36;18.95;;;9.27;;
38479;SDS011;62333;51.980;5.934;2024-02-04T07:51:02;15.57;;;8.77;;
38479;SDS011;62333;51.980;5.934;2024-02-04T07:53:28;12.82;;;8.23;;
38479;SDS011;62333;51.980;5.934;2024-02-04T07:55:54;13.15;;;7.22;;
38479;SDS011;62333;51.980;5.934;2024-02-04T07:58:19;15.48;;;7.80;;
38479;SDS011;62333;51.980;5.934;2024-02-04T08:00:45;17.70;;;6.78;;
38479;SDS011;62333;51.980;5.934;2024-02-04T08:03:10;15.50;;;7.75;;
38479;SDS011;62333;51.980;5.934;2024-02-04T08:05:36;20.58;;;7.22;;
38479;SDS011;62333;51.980;5.934;2024-02-04T08:08:02;12.35;;;6.13;;
38479;SDS011;62333;51.980;5.934;2024-02-04T08:10:27;11.38;;;6.68;;
38479;SDS011;62333;51.980;5.934;2024-02-04T08:12:53;14.77;;;5.88;;
38479;SDS011;62333;51.980;5.934;2024-02-04T08:15:19;15.82;;;5.93;;
38479;SDS011;62333;51.980;5.934;2024-02-04T08:17:45;9.70;;;5.10;;
38479;SDS011;62333;51.980;5.934;2024-02-04T08:20:11;12.27;;;5.32;;
38479;SDS011;62333;51.980;5.934;2024-02-04T08:22:37;11.15;;;5.25;;
38479;SDS011;62333;51.980;5.934;2024-02-04T08:25:04;8.73;;;4.55;;
38479;SDS011;62333;51.980;5.934;2024-02-04T08:27:30;8.93;;;4.38;;
38479;SDS011;62333;51.980;5.934;2024-02-04T08:29:56;9.63;;;5.07;;
38479;SDS011;62333;51.980;5.934;2024-02-04T08:32:22;16.45;;;5.43;;
38479;SDS011;62333;51.980;5.934;2024-02-04T08:34:47;10.68;;;5.57;;
38479;SDS011;62333;51.980;5.934;2024-02-04T08:37:13;9.10;;;4.65;;
38479;SDS011;62333;51.980;5.934;2024-02-04T08:39:39;10.15;;;4.45;;
38479;SDS011;62333;51.980;5.934;2024-02-04T08:42:04;8.73;;;4.07;;
38479;SDS011;62333;51.980;5.934;2024-02-04T08:44:30;11.82;;;4.72;;
38479;SDS011;62333;51.980;5.934;2024-02-04T08:46:56;11.02;;;4.93;;
38479;SDS011;62333;51.980;5.934;2024-02-04T08:49:22;10.98;;;4.35;;
38479;SDS011;62333;51.980;5.934;2024-02-04T08:51:47;9.30;;;4.38;;
38479;SDS011;62333;51.980;5.934;2024-02-04T08:54:13;13.88;;;5.53;;
38479;SDS011;62333;51.980;5.934;2024-02-04T08:56:39;8.55;;;4.80;;
38479;SDS011;62333;51.980;5.934;2024-02-04T08:59:05;9.20;;;3.60;;
38479;SDS011;62333;51.980;5.934;2024-02-04T09:01:31;6.88;;;3.40;;
38479;SDS011;62333;51.980;5.934;2024-02-04T09:03:57;9.35;;;2.88;;
38479;SDS011;62333;51.980;5.934;2024-02-04T09:06:22;9.95;;;2.90;;
38479;SDS011;62333;51.980;5.934;2024-02-04T09:08:48;7.75;;;2.95;;
38479;SDS011;62333;51.980;5.934;2024-02-04T09:11:14;9.73;;;2.88;;
38479;SDS011;62333;51.980;5.934;2024-02-04T09:13:44;6.78;;;2.70;;
38479;SDS011;62333;51.980;5.934;2024-02-04T09:16:10;7.85;;;3.55;;
38479;SDS011;62333;51.980;5.934;2024-02-04T09:18:36;10.25;;;2.92;;
38479;SDS011;62333;51.980;5.934;2024-02-04T09:21:02;12.63;;;3.25;;
38479;SDS011;62333;51.980;5.934;2024-02-04T09:23:27;9.52;;;2.90;;
38479;SDS011;62333;51.980;5.934;2024-02-04T09:25:53;9.07;;;2.90;;
38479;SDS011;62333;51.980;5.934;2024-02-04T09:28:19;5.15;;;1.95;;
38479;SDS011;62333;51.980;5.934;2024-02-04T09:30:45;11.13;;;2.90;;
38479;SDS011;62333;51.980;5.934;2024-02-04T09:33:11;9.00;;;3.92;;
38479;SDS011;62333;51.980;5.934;2024-02-04T09:35:38;14.35;;;4.80;;
38479;SDS011;62333;51.980;5.934;2024-02-04T09:38:04;13.00;;;5.03;;
38479;SDS011;62333;51.980;5.934;2024-02-04T09:40:30;13.20;;;4.60;;
38479;SDS011;62333;51.980;5.934;2024-02-04T09:42:56;7.88;;;4.00;;
38479;SDS011;62333;51.980;5.934;2024-02-04T09:45:23;7.45;;;3.70;;
38479;SDS011;62333;51.980;5.934;2024-02-04T09:47:49;9.10;;;3.58;;
38479;SDS011;62333;51.980;5.934;2024-02-04T09:50:18;9.15;;;4.25;;
38479;SDS011;62333;51.980;5.934;2024-02-04T09:52:48;10.68;;;4.38;;
38479;SDS011;62333;51.980;5.934;2024-02-04T09:55:18;6.50;;;3.40;;
38479;SDS011;62333;51.980;5.934;2024-02-04T09:57:46;8.15;;;3.83;;
38479;SDS011;62333;51.980;5.934;2024-02-04T10:00:12;14.93;;;3.55;;
38479;SDS011;62333;51.980;5.934;2024-02-04T10:02:38;8.73;;;3.05;;
38479;SDS011;62333;51.980;5.934;2024-02-04T10:05:06;6.72;;;2.17;;
38479;SDS011;62333;51.980;5.934;2024-02-04T10:07:34;9.27;;;3.00;;
38479;SDS011;62333;51.980;5.934;2024-02-04T10:10:00;10.80;;;3.05;;
38479;SDS011;62333;51.980;5.934;2024-02-04T10:12:26;6.55;;;2.20;;
38479;SDS011;62333;51.980;5.934;2024-02-04T10:14:52;8.40;;;2.70;;
38479;SDS011;62333;51.980;5.934;2024-02-04T10:17:17;6.03;;;1.90;;
38479;SDS011;62333;51.980;5.934;2024-02-04T10:19:47;7.30;;;2.70;;
38479;SDS011;62333;51.980;5.934;2024-02-04T10:22:13;7.18;;;2.90;;
38479;SDS011;62333;51.980;5.934;2024-02-04T10:24:41;7.07;;;2.03;;
38479;SDS011;62333;51.980;5.934;2024-02-04T10:27:09;9.50;;;2.03;;
38479;SDS011;62333;51.980;5.934;2024-02-04T10:29:36;8.35;;;2.08;;
38479;SDS011;62333;51.980;5.934;2024-02-04T10:32:02;7.00;;;1.55;;
38479;SDS011;62333;51.980;5.934;2024-02-04T10:34:28;11.82;;;2.15;;
38479;SDS011;62333;51.980;5.934;2024-02-04T10:36:56;5.70;;;2.10;;
38479;SDS011;62333;51.980;5.934;2024-02-04T10:39:22;4.05;;;1.50;;
38479;SDS011;62333;51.980;5.934;2024-02-04T10:41:51;6.80;;;1.20;;
38479;SDS011;62333;51.980;5.934;2024-02-04T10:44:20;6.70;;;1.42;;
38479;SDS011;62333;51.980;5.934;2024-02-04T10:46:48;5.75;;;1.58;;
38479;SDS011;62333;51.980;5.934;2024-02-04T10:49:15;6.00;;;1.52;;
38479;SDS011;62333;51.980;5.934;2024-02-04T10:51:42;5.20;;;1.02;;
38479;SDS011;62333;51.980;5.934;2024-02-04T10:54:11;5.25;;;0.80;;
38479;SDS011;62333;51.980;5.934;2024-02-04T10:56:44;5.78;;;1.00;;
38479;SDS011;62333;51.980;5.934;2024-02-04T10:59:12;3.75;;;0.80;;
38479;SDS011;62333;51.980;5.934;2024-02-04T11:01:43;4.50;;;1.58;;
38479;SDS011;62333;51.980;5.934;2024-02-04T11:04:10;4.50;;;0.82;;
38479;SDS011;62333;51.980;5.934;2024-02-04T11:06:40;3.28;;;0.70;;
38479;SDS011;62333;51.980;5.934;2024-02-04T11:09:08;6.28;;;1.73;;
38479;SDS011;62333;51.980;5.934;2024-02-04T11:11:34;3.30;;;0.73;;
38479;SDS011;62333;51.980;5.934;2024-02-04T11:14:04;3.65;;;0.60;;
38479;SDS011;62333;51.980;5.934;2024-02-04T11:25:06;2.05;;;0.40;;
38479;SDS011;62333;51.980;5.934;2024-02-04T11:27:53;5.25;;;0.75;;
38479;SDS011;62333;51.980;5.934;2024-02-04T11:30:19;2.65;;;0.50;;
38479;SDS011;62333;51.980;5.934;2024-02-04T11:32:45;1.50;;;0.50;;
38479;SDS011;62333;51.980;5.934;2024-02-04T11:35:11;3.55;;;0.40;;
38479;SDS011;62333;51.980;5.934;2024-02-04T11:37:38;2.25;;;0.45;;
38479;SDS011;62333;51.980;5.934;2024-02-04T11:40:07;2.38;;;1.10;;
38479;SDS011;62333;51.980;5.934;2024-02-04T11:42:33;1.30;;;0.30;;
38479;SDS011;62333;51.980;5.934;2024-02-04T11:45:11;2.22;;;0.68;;
38479;SDS011;62333;51.980;5.934;2024-02-04T11:47:38;1.63;;;0.50;;
38479;SDS011;62333;51.980;5.934;2024-02-04T11:50:04;0.40;;;0.10;;
38479;SDS011;62333;51.980;5.934;2024-02-04T11:52:31;1.13;;;0.20;;
38479;SDS011;62333;51.980;5.934;2024-02-04T11:54:57;0.75;;;0.32;;
38479;SDS011;62333;51.980;5.934;2024-02-04T11:57:23;1.45;;;0.13;;
38479;SDS011;62333;51.980;5.934;2024-02-04T11:59:49;0.50;;;0.10;;
38479;SDS011;62333;51.980;5.934;2024-02-04T12:02:16;0.50;;;0.20;;
38479;SDS011;62333;51.980;5.934;2024-02-04T12:04:45;3.33;;;0.82;;
38479;SDS011;62333;51.980;5.934;2024-02-04T12:07:15;0.50;;;0.20;;
38479;SDS011;62333;51.980;5.934;2024-02-04T12:09:42;1.60;;;0.35;;
38479;SDS011;62333;51.980;5.934;2024-02-04T12:12:08;0.95;;;0.30;;
38479;SDS011;62333;51.980;5.934;2024-02-04T12:14:36;1.92;;;0.50;;
38479;SDS011;62333;51.980;5.934;2024-02-04T12:17:07;1.77;;;0.70;;
38479;SDS011;62333;51.980;5.934;2024-02-04T12:19:34;1.15;;;0.50;;
38479;SDS011;62333;51.980;5.934;2024-02-04T12:22:00;2.03;;;0.70;;
38479;SDS011;62333;51.980;5.934;2024-02-04T12:24:26;3.10;;;1.77;;
38479;SDS011;62333;51.980;5.934;2024-02-04T12:26:52;4.20;;;1.20;;
38479;SDS011;62333;51.980;5.934;2024-02-04T12:29:18;9.38;;;1.20;;
38479;SDS011;62333;51.980;5.934;2024-02-04T12:31:44;3.53;;;0.80;;
38479;SDS011;62333;51.980;5.934;2024-02-04T12:34:10;2.60;;;1.10;;
38479;SDS011;62333;51.980;5.934;2024-02-04T12:36:37;5.22;;;1.95;;
38479;SDS011;62333;51.980;5.934;2024-02-04T12:39:03;6.55;;;2.25;;
38479;SDS011;62333;51.980;5.934;2024-02-04T12:41:29;7.18;;;2.03;;
38479;SDS011;62333;51.980;5.934;2024-02-04T12:43:56;12.35;;;2.50;;
38479;SDS011;62333;51.980;5.934;2024-02-04T12:46:23;4.15;;;1.63;;
38479;SDS011;62333;51.980;5.934;2024-02-04T12:48:52;8.77;;;2.90;;
38479;SDS011;62333;51.980;5.934;2024-02-04T12:51:31;10.15;;;2.42;;
38479;SDS011;62333;51.980;5.934;2024-02-04T12:59:33;9.02;;;2.47;;
38479;SDS011;62333;51.980;5.934;2024-02-04T13:02:02;9.43;;;2.78;;
38479;SDS011;62333;51.980;5.934;2024-02-04T13:04:39;10.20;;;2.47;;
38479;SDS011;62333;51.980;5.934;2024-02-04T13:07:13;10.38;;;2.47;;
38479;SDS011;62333;51.980;5.934;2024-02-04T13:09:40;5.78;;;1.95;;
38479;SDS011;62333;51.980;5.934;2024-02-04T13:12:06;15.25;;;2.83;;
38479;SDS011;62333;51.980;5.934;2024-02-04T13:14:33;14.52;;;3.15;;
38479;SDS011;62333;51.980;5.934;2024-02-04T13:17:03;12.00;;;2.90;;
38479;SDS011;62333;51.980;5.934;2024-02-04T13:19:36;13.30;;;2.40;;
38479;SDS011;62333;51.980;5.934;2024-02-04T13:22:03;9.13;;;1.52;;
38479;SDS011;62333;51.980;5.934;2024-02-04T13:24:29;6.60;;;2.33;;
38479;SDS011;62333;51.980;5.934;2024-02-04T13:26:56;8.07;;;1.83;;
38479;SDS011;62333;51.980;5.934;2024-02-04T13:29:22;9.27;;;1.27;;
38479;SDS011;62333;51.980;5.934;2024-02-04T13:31:48;9.38;;;2.15;;
38479;SDS011;62333;51.980;5.934;2024-02-04T13:34:14;9.48;;;2.53;;
38479;SDS011;62333;51.980;5.934;2024-02-04T13:36:41;11.80;;;2.78;;
38479;SDS011;62333;51.980;5.934;2024-02-04T13:39:07;8.63;;;2.60;;
38479;SDS011;62333;51.980;5.934;2024-02-04T13:41:33;7.28;;;1.90;;
38479;SDS011;62333;51.980;5.934;2024-02-04T13:43:58;8.07;;;2.03;;
38479;SDS011;62333;51.980;5.934;2024-02-04T13:46:24;8.63;;;2.10;;
38479;SDS011;62333;51.980;5.934;2024-02-04T13:48:50;7.75;;;2.38;;
38479;SDS011;62333;51.980;5.934;2024-02-04T13:51:16;10.40;;;2.72;;
38479;SDS011;62333;51.980;5.934;2024-02-04T13:53:42;7.25;;;2.25;;
38479;SDS011;62333;51.980;5.934;2024-02-04T13:56:07;6.88;;;1.63;;
38479;SDS011;62333;51.980;5.934;2024-02-04T13:58:33;13.23;;;2.78;;
38479;SDS011;62333;51.980;5.934;2024-02-04T14:00:59;8.77;;;2.83;;
38479;SDS011;62333;51.980;5.934;2024-02-04T14:03:25;13.73;;;3.05;;
38479;SDS011;62333;51.980;5.934;2024-02-04T14:05:50;10.15;;;2.22;;
38479;SDS011;62333;51.980;5.934;2024-02-04T14:08:17;16.17;;;3.38;;
38479;SDS011;62333;51.980;5.934;2024-02-04T14:10:42;8.60;;;2.35;;
38479;SDS011;62333;51.980;5.934;2024-02-04T14:13:08;8.25;;;2.45;;
38479;SDS011;62333;51.980;5.934;2024-02-04T14:15:36;15.65;;;3.72;;
38479;SDS011;62333;51.980;5.934;2024-02-04T14:18:01;11.10;;;3.55;;
38479;SDS011;62333;51.980;5.934;2024-02-04T14:20:27;7.93;;;2.78;;
38479;SDS011;62333;51.980;5.934;2024-02-04T14:22:53;9.65;;;2.42;;
38479;SDS011;62333;51.980;5.934;2024-02-04T14:25:19;8.65;;;2.50;;
38479;SDS011;62333;51.980;5.934;2024-02-04T14:27:44;9.95;;;3.03;;
38479;SDS011;62333;51.980;5.934;2024-02-04T14:30:10;8.95;;;2.95;;
38479;SDS011;62333;51.980;5.934;2024-02-04T14:32:36;10.23;;;2.05;;
38479;SDS011;62333;51.980;5.934;2024-02-04T14:35:02;18.48;;;4.13;;
38479;SDS011;62333;51.980;5.934;2024-02-04T14:37:29;14.80;;;2.95;;
38479;SDS011;62333;51.980;5.934;2024-02-04T14:39:57;8.88;;;2.13;;
38479;SDS011;62333;51.980;5.934;2024-02-04T14:42:25;9.48;;;3.55;;
38479;SDS011;62333;51.980;5.934;2024-02-04T14:44:52;6.00;;;1.85;;
38479;SDS011;62333;51.980;5.934;2024-02-04T14:47:17;13.98;;;2.60;;
38479;SDS011;62333;51.980;5.934;2024-02-04T14:49:43;7.85;;;1.80;;
38479;SDS011;62333;51.980;5.934;2024-02-04T14:52:09;12.18;;;4.10;;
38479;SDS011;62333;51.980;5.934;2024-02-04T14:54:35;9.52;;;2.50;;